M/T Arcadia — SY7849 — position and weather

sailwx.info

Track history (hours):
 
Tides and Currents Weather Stations Pressure Air Temp Water Temp Dewpoint Dewpoint Depression Visibility Wind Speed Wind Dir Waves Ship Positions

M/T Arcadia

Last reported at 2015-Mar-28 23:15 UTC. Time now 2015-Mar-28 23:58 UTC.
Position N 37°19' E 023°22'.

Length 76 m; draft 4.9 m.

Type: Ship. MMSI: 240560000.

Date/timePositionNaut miles runAvg speedWind from/ knotsBaromVisibWave heightAir tempDewpointWater temp
2015-Mar-28 23:15N 37°19' E 023°22'6 8.5
2015-Mar-28 22:29N 37°23' E 023°29'7 6.9
2015-Mar-28 21:25N 37°29' E 023°34'7 8.3
2015-Mar-28 20:33N 37°35' E 023°29'8 7.9
2015-Mar-28 19:33N 37°39' E 023°20'8 7.7
2015-Mar-28 18:33N 37°46' E 023°15'9 8.4
2015-Mar-28 17:26N 37°53' E 023°08'2 0.1
2015-Mar-27 15:17N 37°55' E 023°06'13 6.7
2015-Mar-27 13:21N 37°51' E 023°22'7 8.6
2015-Mar-27 12:33N 37°50' E 023°30'8 7.5
2015-Mar-27 11:33N 37°57' E 023°35'1 0.9
2015-Mar-27 10:32N 37°57' E 023°36'0 0.0
2015-Mar-27 09:32N 37°57' E 023°36'0 0.0
2015-Mar-27 08:32N 37°57' E 023°36'0 0.0
2015-Mar-27 07:11N 37°57' E 023°36'0 0.0
2015-Mar-27 06:32N 37°57' E 023°36'0 0.0
2015-Mar-27 05:26N 37°57' E 023°36'0 0.0
2015-Mar-27 04:32N 37°57' E 023°36'0 0.0
2015-Mar-27 03:32N 37°57' E 023°36'0 0.0
2015-Mar-27 02:32N 37°57' E 023°36'0 0.0
2015-Mar-27 01:32N 37°57' E 023°36'0 0.0
2015-Mar-27 00:32N 37°57' E 023°36'0 0.0
2015-Mar-26 23:32N 37°57' E 023°36'0 0.0
2015-Mar-26 22:32N 37°57' E 023°36'0 0.0
2015-Mar-26 21:29N 37°57' E 023°36'0 0.0
2015-Mar-26 20:32N 37°57' E 023°36'0 0.0
2015-Mar-26 19:32N 37°57' E 023°36'0 0.0
2015-Mar-26 18:29N 37°57' E 023°36'0 0.0
2015-Mar-26 17:32N 37°57' E 023°36'0 0.0
2015-Mar-26 16:32N 37°57' E 023°36'0 0.0
2015-Mar-26 15:29N 37°57' E 023°36'0 0.0
2015-Mar-26 14:32N 37°57' E 023°36'0 0.0
2015-Mar-26 13:32N 37°57' E 023°36'0 0.0
2015-Mar-26 12:29N 37°57' E 023°36'0 0.0
2015-Mar-26 11:32N 37°57' E 023°36'0 0.0
2015-Mar-26 10:32N 37°57' E 023°36'0 0.0
2015-Mar-26 09:32N 37°57' E 023°36'0 0.0
2015-Mar-26 08:32N 37°57' E 023°36'0 0.0
2015-Mar-26 07:29N 37°57' E 023°36'0 0.0
2015-Mar-26 06:32N 37°57' E 023°36'0 0.0
2015-Mar-26 05:32N 37°57' E 023°36'0 0.0
2015-Mar-26 04:32N 37°57' E 023°36'0 0.0
2015-Mar-26 03:32N 37°57' E 023°36'0 0.0
2015-Mar-26 02:32N 37°57' E 023°36'0 0.0
2015-Mar-26 01:32N 37°57' E 023°36'0 0.0
2015-Mar-26 00:32N 37°57' E 023°36'0 0.0
2015-Mar-25 23:26N 37°57' E 023°36'0 0.0
2015-Mar-25 22:32N 37°57' E 023°36'0 0.0
2015-Mar-25 21:32N 37°57' E 023°36'0 0.0
2015-Mar-25 20:32N 37°57' E 023°36'0 0.0
2015-Mar-25 19:32N 37°57' E 023°36'0 0.0
2015-Mar-25 18:32N 37°57' E 023°36'0 0.0
2015-Mar-25 17:26N 37°57' E 023°36'0 0.0
2015-Mar-25 16:26N 37°57' E 023°36'0 0.0
2015-Mar-25 15:26N 37°57' E 023°36'0 0.0
2015-Mar-25 14:32N 37°57' E 023°36'0 0.0
2015-Mar-25 13:32N 37°57' E 023°36'0 0.0
2015-Mar-25 12:26N 37°57' E 023°36'0 0.0
2015-Mar-25 11:32N 37°57' E 023°36'0 0.0
2015-Mar-25 10:32N 37°57' E 023°36'0 0.0
2015-Mar-25 09:32N 37°57' E 023°36'0 0.0
2015-Mar-25 08:32N 37°57' E 023°36'0 0.0
2015-Mar-25 07:32N 37°57' E 023°36'0 0.0
2015-Mar-25 06:32N 37°57' E 023°36'0 0.0
2015-Mar-25 05:32N 37°57' E 023°36'0 0.0
2015-Mar-25 04:32N 37°57' E 023°36'0 0.0
2015-Mar-25 03:32N 37°57' E 023°36'0 0.0
2015-Mar-25 02:32N 37°57' E 023°36'0 0.0
2015-Mar-25 01:32N 37°57' E 023°36'0 0.0
2015-Mar-25 00:32N 37°57' E 023°36'0 0.0
2015-Mar-24 23:32N 37°57' E 023°36'0 0.0
2015-Mar-24 22:29N 37°57' E 023°36'0 0.0
2015-Mar-24 21:26N 37°57' E 023°36'0 0.0
2015-Mar-24 20:32N 37°57' E 023°36'0 0.0
2015-Mar-24 19:29N 37°57' E 023°36'0 0.0
2015-Mar-24 18:32N 37°57' E 023°36'0 0.0
2015-Mar-24 17:32N 37°57' E 023°36'0 0.0
2015-Mar-24 16:32N 37°57' E 023°36'0 0.0
2015-Mar-24 15:32N 37°57' E 023°36'0 0.0
2015-Mar-24 14:32N 37°57' E 023°36'0 0.0
2015-Mar-24 13:23N 37°57' E 023°36'0 0.0
2015-Mar-24 12:32N 37°57' E 023°36'0 0.0
2015-Mar-24 11:29N 37°57' E 023°36'0 0.0
2015-Mar-24 10:26N 37°57' E 023°36'0 0.0
2015-Mar-24 09:32N 37°57' E 023°36'0 0.0
2015-Mar-24 08:26N 37°57' E 023°36'0 0.0
2015-Mar-24 07:32N 37°57' E 023°36'0 0.0
2015-Mar-24 06:26N 37°57' E 023°36'0 0.0
2015-Mar-24 05:17N 37°57' E 023°36'0 0.0
2015-Mar-24 04:32N 37°57' E 023°36'0 0.0
2015-Mar-24 03:32N 37°57' E 023°36'0 0.0
2015-Mar-24 02:32N 37°57' E 023°36'0 0.0
2015-Mar-24 01:23N 37°57' E 023°36'0 0.0
2015-Mar-24 00:32N 37°57' E 023°36'0 0.0
2015-Mar-23 23:32N 37°57' E 023°36'0 0.0
2015-Mar-23 22:32N 37°57' E 023°36'0 0.0
2015-Mar-23 21:26N 37°57' E 023°36'0 0.0
2015-Mar-23 20:29N 37°57' E 023°36'0 0.0
2015-Mar-23 19:26N 37°57' E 023°36'0 0.0
2015-Mar-23 18:32N 37°57' E 023°36'0 0.0
2015-Mar-23 17:32N 37°57' E 023°36'0 0.0
2015-Mar-23 16:32N 37°57' E 023°36'0 0.0
2015-Mar-23 15:29N 37°57' E 023°36'0 0.0
2015-Mar-23 14:14N 37°57' E 023°36'0 0.0
2015-Mar-23 13:32N 37°57' E 023°36'0 0.0
2015-Mar-23 12:32N 37°57' E 023°36'0 0.0
2015-Mar-23 11:26N 37°57' E 023°36'0 0.0
2015-Mar-23 10:32N 37°57' E 023°36'0 0.0
2015-Mar-23 09:32N 37°57' E 023°36'0 0.0
2015-Mar-23 08:29N 37°57' E 023°36'0 0.0
2015-Mar-23 07:23N 37°57' E 023°36'0 0.0
2015-Mar-23 06:20N 37°57' E 023°36'0 0.0
2015-Mar-23 05:08N 37°57' E 023°36'0 0.0
2015-Mar-23 04:32N 37°57' E 023°36'0 0.0
2015-Mar-23 03:23N 37°57' E 023°36'0 0.0
2015-Mar-23 02:32N 37°57' E 023°36'0 0.0
2015-Mar-23 01:32N 37°57' E 023°36'0 0.0
2015-Mar-23 00:32N 37°57' E 023°36'0 0.0
2015-Mar-22 23:29N 37°57' E 023°36'0 0.0
2015-Mar-22 22:26N 37°57' E 023°36'0 0.0
2015-Mar-22 21:32N 37°57' E 023°36'0 0.0
2015-Mar-22 20:26N 37°57' E 023°36'0 0.0
2015-Mar-22 19:32N 37°57' E 023°36'0 0.0
2015-Mar-22 18:32N 37°57' E 023°36'0 0.0
2015-Mar-22 17:32N 37°57' E 023°36'0 0.0
2015-Mar-22 16:32N 37°57' E 023°36'0 0.0
2015-Mar-22 15:29N 37°57' E 023°36'0 0.0
2015-Mar-22 14:32N 37°57' E 023°36'0 0.0
2015-Mar-22 13:08N 37°57' E 023°36'0 0.0
2015-Mar-22 12:05N 37°57' E 023°36'0 0.0
2015-Mar-22 11:26N 37°57' E 023°36'0 0.0
2015-Mar-22 10:29N 37°57' E 023°36'0 0.0
2015-Mar-22 09:20N 37°57' E 023°36'0 0.0
2015-Mar-22 08:14N 37°57' E 023°36'0 0.0
2015-Mar-22 07:32N 37°57' E 023°36'0 0.0
2015-Mar-22 06:32N 37°57' E 023°36'0 0.0
2015-Mar-22 05:32N 37°57' E 023°36'0 0.0
2015-Mar-22 04:32N 37°57' E 023°36'0 0.0
2015-Mar-22 03:20N 37°57' E 023°36'0 0.0
2015-Mar-22 02:32N 37°57' E 023°36'0 0.0
2015-Mar-22 01:32N 37°57' E 023°36'0 0.0
2015-Mar-22 00:29N 37°57' E 023°36'0 0.0
2015-Mar-21 23:29N 37°57' E 023°36'0 0.0
2015-Mar-21 22:26N 37°57' E 023°36'0 0.0
2015-Mar-21 21:17N 37°57' E 023°36'0 0.0
2015-Mar-21 20:29N 37°57' E 023°36'0 0.0
2015-Mar-21 19:32N 37°57' E 023°36'0 0.0
2015-Mar-21 18:32N 37°57' E 023°36'0 0.0
2015-Mar-21 17:32N 37°57' E 023°36'0 0.0
2015-Mar-21 16:32N 37°57' E 023°36'0 0.0
2015-Mar-21 15:29N 37°57' E 023°36'0 0.0
2015-Mar-21 14:26N 37°57' E 023°36'0 0.0
2015-Mar-21 13:29N 37°57' E 023°36'0 0.0
2015-Mar-21 12:32N 37°57' E 023°36'0 0.0
2015-Mar-21 11:29N 37°57' E 023°36'0 0.0
2015-Mar-21 10:30N 37°57' E 023°36'2 2.2
2015-Mar-21 09:33N 37°55' E 023°34'1 0.7
2015-Mar-21 08:31N 37°55' E 023°33'0 0.0
2015-Mar-21 07:28N 37°55' E 023°33'0 0.0
2015-Mar-21 06:25N 37°55' E 023°33'0 0.0
2015-Mar-21 05:31N 37°55' E 023°33'0 0.0
2015-Mar-21 04:25N 37°55' E 023°33'0 0.0
2015-Mar-21 03:28N 37°55' E 023°33'0 0.0
2015-Mar-21 02:31N 37°55' E 023°33'0 0.0
2015-Mar-21 01:31N 37°55' E 023°33'0 0.0
2015-Mar-21 00:31N 37°55' E 023°33'0 0.0
2015-Mar-20 23:31N 37°55' E 023°33'0 0.0
2015-Mar-20 22:31N 37°55' E 023°33'0 0.0
2015-Mar-20 21:31N 37°55' E 023°33'0 0.0
2015-Mar-20 20:31N 37°55' E 023°33'0 0.0
2015-Mar-20 19:31N 37°55' E 023°33'3 3.5
2015-Mar-20 18:33N 37°52' E 023°34'7 7.2
2015-Mar-20 17:33N 37°51' E 023°25'9 0.2
2015-Mar-19 03:06N 37°43' E 023°17'7 7.0
2015-Mar-19 02:07N 37°39' E 023°24'5 8.7
2015-Mar-19 01:33N 37°38' E 023°30'8 8.1
2015-Mar-19 00:33N 37°31' E 023°35'7 7.1
2015-Mar-18 23:30N 37°24' E 023°30'  
Track history (hours):
 
Tides and Currents Weather Stations Pressure Air Temp Water Temp Dewpoint Dewpoint Depression Visibility Wind Speed Wind Dir Waves Ship Positions

M/T Arcadia

Last reported at 2015-Mar-28 23:15 UTC. Time now 2015-Mar-28 23:58 UTC.
Position N 37°19' E 023°22'.

Length 76 m; draft 4.9 m.

Type: Ship. MMSI: 240560000.

Date/timePositionNaut miles runAvg speedWind from/ knotsBaromVisibWave heightAir tempDewpointWater temp
2015-Mar-28 23:15N 37°19' E 023°22'6 8.5
2015-Mar-28 22:29N 37°23' E 023°29'7 6.9
2015-Mar-28 21:25N 37°29' E 023°34'7 8.3
2015-Mar-28 20:33N 37°35' E 023°29'8 7.9
2015-Mar-28 19:33N 37°39' E 023°20'8 7.7
2015-Mar-28 18:33N 37°46' E 023°15'9 8.4
2015-Mar-28 17:26N 37°53' E 023°08'2 0.1
2015-Mar-27 15:17N 37°55' E 023°06'13 6.7
2015-Mar-27 13:21N 37°51' E 023°22'7 8.6
2015-Mar-27 12:33N 37°50' E 023°30'8 7.5
2015-Mar-27 11:33N 37°57' E 023°35'1 0.9
2015-Mar-27 10:32N 37°57' E 023°36'0 0.0
2015-Mar-27 09:32N 37°57' E 023°36'0 0.0
2015-Mar-27 08:32N 37°57' E 023°36'0 0.0
2015-Mar-27 07:11N 37°57' E 023°36'0 0.0
2015-Mar-27 06:32N 37°57' E 023°36'0 0.0
2015-Mar-27 05:26N 37°57' E 023°36'0 0.0
2015-Mar-27 04:32N 37°57' E 023°36'0 0.0
2015-Mar-27 03:32N 37°57' E 023°36'0 0.0
2015-Mar-27 02:32N 37°57' E 023°36'0 0.0
2015-Mar-27 01:32N 37°57' E 023°36'0 0.0
2015-Mar-27 00:32N 37°57' E 023°36'0 0.0
2015-Mar-26 23:32N 37°57' E 023°36'0 0.0
2015-Mar-26 22:32N 37°57' E 023°36'0 0.0
2015-Mar-26 21:29N 37°57' E 023°36'0 0.0
2015-Mar-26 20:32N 37°57' E 023°36'0 0.0
2015-Mar-26 19:32N 37°57' E 023°36'0 0.0
2015-Mar-26 18:29N 37°57' E 023°36'0 0.0
2015-Mar-26 17:32N 37°57' E 023°36'0 0.0
2015-Mar-26 16:32N 37°57' E 023°36'0 0.0
2015-Mar-26 15:29N 37°57' E 023°36'0 0.0
2015-Mar-26 14:32N 37°57' E 023°36'0 0.0
2015-Mar-26 13:32N 37°57' E 023°36'0 0.0
2015-Mar-26 12:29N 37°57' E 023°36'0 0.0
2015-Mar-26 11:32N 37°57' E 023°36'0 0.0
2015-Mar-26 10:32N 37°57' E 023°36'0 0.0
2015-Mar-26 09:32N 37°57' E 023°36'0 0.0
2015-Mar-26 08:32N 37°57' E 023°36'0 0.0
2015-Mar-26 07:29N 37°57' E 023°36'0 0.0
2015-Mar-26 06:32N 37°57' E 023°36'0 0.0
2015-Mar-26 05:32N 37°57' E 023°36'0 0.0
2015-Mar-26 04:32N 37°57' E 023°36'0 0.0
2015-Mar-26 03:32N 37°57' E 023°36'0 0.0
2015-Mar-26 02:32N 37°57' E 023°36'0 0.0
2015-Mar-26 01:32N 37°57' E 023°36'0 0.0
2015-Mar-26 00:32N 37°57' E 023°36'0 0.0
2015-Mar-25 23:26N 37°57' E 023°36'0 0.0
2015-Mar-25 22:32N 37°57' E 023°36'0 0.0
2015-Mar-25 21:32N 37°57' E 023°36'0 0.0
2015-Mar-25 20:32N 37°57' E 023°36'0 0.0
2015-Mar-25 19:32N 37°57' E 023°36'0 0.0
2015-Mar-25 18:32N 37°57' E 023°36'0 0.0
2015-Mar-25 17:26N 37°57' E 023°36'0 0.0
2015-Mar-25 16:26N 37°57' E 023°36'0 0.0
2015-Mar-25 15:26N 37°57' E 023°36'0 0.0
2015-Mar-25 14:32N 37°57' E 023°36'0 0.0
2015-Mar-25 13:32N 37°57' E 023°36'0 0.0
2015-Mar-25 12:26N 37°57' E 023°36'0 0.0
2015-Mar-25 11:32N 37°57' E 023°36'0 0.0
2015-Mar-25 10:32N 37°57' E 023°36'0 0.0
2015-Mar-25 09:32N 37°57' E 023°36'0 0.0
2015-Mar-25 08:32N 37°57' E 023°36'0 0.0
2015-Mar-25 07:32N 37°57' E 023°36'0 0.0
2015-Mar-25 06:32N 37°57' E 023°36'0 0.0
2015-Mar-25 05:32N 37°57' E 023°36'0 0.0
2015-Mar-25 04:32N 37°57' E 023°36'0 0.0
2015-Mar-25 03:32N 37°57' E 023°36'0 0.0
2015-Mar-25 02:32N 37°57' E 023°36'0 0.0
2015-Mar-25 01:32N 37°57' E 023°36'0 0.0
2015-Mar-25 00:32N 37°57' E 023°36'0 0.0
2015-Mar-24 23:32N 37°57' E 023°36'0 0.0
2015-Mar-24 22:29N 37°57' E 023°36'0 0.0
2015-Mar-24 21:26N 37°57' E 023°36'0 0.0
2015-Mar-24 20:32N 37°57' E 023°36'0 0.0
2015-Mar-24 19:29N 37°57' E 023°36'0 0.0
2015-Mar-24 18:32N 37°57' E 023°36'0 0.0
2015-Mar-24 17:32N 37°57' E 023°36'0 0.0
2015-Mar-24 16:32N 37°57' E 023°36'0 0.0
2015-Mar-24 15:32N 37°57' E 023°36'0 0.0
2015-Mar-24 14:32N 37°57' E 023°36'0 0.0
2015-Mar-24 13:23N 37°57' E 023°36'0 0.0
2015-Mar-24 12:32N 37°57' E 023°36'0 0.0
2015-Mar-24 11:29N 37°57' E 023°36'0 0.0
2015-Mar-24 10:26N 37°57' E 023°36'0 0.0
2015-Mar-24 09:32N 37°57' E 023°36'0 0.0
2015-Mar-24 08:26N 37°57' E 023°36'0 0.0
2015-Mar-24 07:32N 37°57' E 023°36'0 0.0
2015-Mar-24 06:26N 37°57' E 023°36'0 0.0
2015-Mar-24 05:17N 37°57' E 023°36'0 0.0
2015-Mar-24 04:32N 37°57' E 023°36'0 0.0
2015-Mar-24 03:32N 37°57' E 023°36'0 0.0
2015-Mar-24 02:32N 37°57' E 023°36'0 0.0
2015-Mar-24 01:23N 37°57' E 023°36'0 0.0
2015-Mar-24 00:32N 37°57' E 023°36'0 0.0
2015-Mar-23 23:32N 37°57' E 023°36'0 0.0
2015-Mar-23 22:32N 37°57' E 023°36'0 0.0
2015-Mar-23 21:26N 37°57' E 023°36'0 0.0
2015-Mar-23 20:29N 37°57' E 023°36'0 0.0
2015-Mar-23 19:26N 37°57' E 023°36'0 0.0
2015-Mar-23 18:32N 37°57' E 023°36'0 0.0
2015-Mar-23 17:32N 37°57' E 023°36'0 0.0
2015-Mar-23 16:32N 37°57' E 023°36'0 0.0
2015-Mar-23 15:29N 37°57' E 023°36'0 0.0
2015-Mar-23 14:14N 37°57' E 023°36'0 0.0
2015-Mar-23 13:32N 37°57' E 023°36'0 0.0
2015-Mar-23 12:32N 37°57' E 023°36'0 0.0
2015-Mar-23 11:26N 37°57' E 023°36'0 0.0
2015-Mar-23 10:32N 37°57' E 023°36'0 0.0
2015-Mar-23 09:32N 37°57' E 023°36'0 0.0
2015-Mar-23 08:29N 37°57' E 023°36'0 0.0
2015-Mar-23 07:23N 37°57' E 023°36'0 0.0
2015-Mar-23 06:20N 37°57' E 023°36'0 0.0
2015-Mar-23 05:08N 37°57' E 023°36'0 0.0
2015-Mar-23 04:32N 37°57' E 023°36'0 0.0
2015-Mar-23 03:23N 37°57' E 023°36'0 0.0
2015-Mar-23 02:32N 37°57' E 023°36'0 0.0
2015-Mar-23 01:32N 37°57' E 023°36'0 0.0
2015-Mar-23 00:32N 37°57' E 023°36'0 0.0
2015-Mar-22 23:29N 37°57' E 023°36'0 0.0
2015-Mar-22 22:26N 37°57' E 023°36'0 0.0
2015-Mar-22 21:32N 37°57' E 023°36'0 0.0
2015-Mar-22 20:26N 37°57' E 023°36'0 0.0
2015-Mar-22 19:32N 37°57' E 023°36'0 0.0
2015-Mar-22 18:32N 37°57' E 023°36'0 0.0
2015-Mar-22 17:32N 37°57' E 023°36'0 0.0
2015-Mar-22 16:32N 37°57' E 023°36'0 0.0
2015-Mar-22 15:29N 37°57' E 023°36'0 0.0
2015-Mar-22 14:32N 37°57' E 023°36'0 0.0
2015-Mar-22 13:08N 37°57' E 023°36'0 0.0
2015-Mar-22 12:05N 37°57' E 023°36'0 0.0
2015-Mar-22 11:26N 37°57' E 023°36'0 0.0
2015-Mar-22 10:29N 37°57' E 023°36'0 0.0
2015-Mar-22 09:20N 37°57' E 023°36'0 0.0
2015-Mar-22 08:14N 37°57' E 023°36'0 0.0
2015-Mar-22 07:32N 37°57' E 023°36'0 0.0
2015-Mar-22 06:32N 37°57' E 023°36'0 0.0
2015-Mar-22 05:32N 37°57' E 023°36'0 0.0
2015-Mar-22 04:32N 37°57' E 023°36'0 0.0
2015-Mar-22 03:20N 37°57' E 023°36'0 0.0
2015-Mar-22 02:32N 37°57' E 023°36'0 0.0
2015-Mar-22 01:32N 37°57' E 023°36'0 0.0
2015-Mar-22 00:29N 37°57' E 023°36'0 0.0
2015-Mar-21 23:29N 37°57' E 023°36'0 0.0
2015-Mar-21 22:26N 37°57' E 023°36'0 0.0
2015-Mar-21 21:17N 37°57' E 023°36'0 0.0
2015-Mar-21 20:29N 37°57' E 023°36'0 0.0
2015-Mar-21 19:32N 37°57' E 023°36'0 0.0
2015-Mar-21 18:32N 37°57' E 023°36'0 0.0
2015-Mar-21 17:32N 37°57' E 023°36'0 0.0
2015-Mar-21 16:32N 37°57' E 023°36'0 0.0
2015-Mar-21 15:29N 37°57' E 023°36'0 0.0
2015-Mar-21 14:26N 37°57' E 023°36'0 0.0
2015-Mar-21 13:29N 37°57' E 023°36'0 0.0
2015-Mar-21 12:32N 37°57' E 023°36'0 0.0
2015-Mar-21 11:29N 37°57' E 023°36'0 0.0
2015-Mar-21 10:30N 37°57' E 023°36'2 2.2
2015-Mar-21 09:33N 37°55' E 023°34'1 0.7
2015-Mar-21 08:31N 37°55' E 023°33'0 0.0
2015-Mar-21 07:28N 37°55' E 023°33'0 0.0
2015-Mar-21 06:25N 37°55' E 023°33'0 0.0
2015-Mar-21 05:31N 37°55' E 023°33'0 0.0
2015-Mar-21 04:25N 37°55' E 023°33'0 0.0
2015-Mar-21 03:28N 37°55' E 023°33'0 0.0
2015-Mar-21 02:31N 37°55' E 023°33'0 0.0
2015-Mar-21 01:31N 37°55' E 023°33'0 0.0
2015-Mar-21 00:31N 37°55' E 023°33'0 0.0
2015-Mar-20 23:31N 37°55' E 023°33'0 0.0
2015-Mar-20 22:31N 37°55' E 023°33'0 0.0
2015-Mar-20 21:31N 37°55' E 023°33'0 0.0
2015-Mar-20 20:31N 37°55' E 023°33'0 0.0
2015-Mar-20 19:31N 37°55' E 023°33'3 3.5
2015-Mar-20 18:33N 37°52' E 023°34'7 7.2
2015-Mar-20 17:33N 37°51' E 023°25'9 0.2
2015-Mar-19 03:06N 37°43' E 023°17'7 7.0
2015-Mar-19 02:07N 37°39' E 023°24'5 8.7
2015-Mar-19 01:33N 37°38' E 023°30'8 8.1
2015-Mar-19 00:33N 37°31' E 023°35'7 7.1
2015-Mar-18 23:30N 37°24' E 023°30'  

Dump ship's entire track history